createdAt,value
2023-03-20T00:01:58.225Z,100214.94
2023-03-20T00:04:26.630Z,100220.84
2023-03-20T00:06:54.466Z,100223.19
2023-03-20T00:09:25.460Z,100228.97
2023-03-20T00:11:55.347Z,100221.22
2023-03-20T00:14:24.827Z,100227.97
2023-03-20T00:16:53.104Z,100228.78
2023-03-20T00:19:23.852Z,100239.84
2023-03-20T00:21:51.895Z,100233.09
2023-03-20T00:24:19.842Z,100242.47
2023-03-20T00:26:50.704Z,100251.00
2023-03-20T00:29:23.328Z,100242.28
2023-03-20T00:31:51.481Z,100240.44
2023-03-20T00:34:22.182Z,100236.75
2023-03-20T00:36:49.807Z,100243.53
2023-03-20T00:39:17.374Z,100246.03
2023-03-20T00:41:50.100Z,100246.78
2023-03-20T00:44:24.632Z,100245.09
2023-03-20T00:46:55.044Z,100243.28
2023-03-20T00:49:26.278Z,100244.97
2023-03-20T00:51:53.841Z,100249.28
2023-03-20T00:54:21.532Z,100244.16
2023-03-20T00:56:55.817Z,100244.97
2023-03-20T00:59:28.013Z,100245.91
2023-03-20T01:01:56.479Z,100252.66
2023-03-20T01:04:24.273Z,100245.72
2023-03-20T01:06:52.504Z,100250.91
2023-03-20T01:09:20.068Z,100246.53
2023-03-20T01:11:47.849Z,100247.41
2023-03-20T01:14:17.900Z,100249.09
2023-03-20T01:16:46.924Z,100244.72
2023-03-20T01:19:16.729Z,100248.53
2023-03-20T01:21:44.889Z,100248.53
2023-03-20T01:24:12.472Z,100246.78
2023-03-20T01:26:42.245Z,100255.06
2023-03-20T01:29:19.019Z,100258.44
2023-03-20T01:32:14.708Z,100253.19
2023-03-20T01:34:43.406Z,100255.56
2023-03-20T01:37:14.490Z,100255.59
2023-03-20T01:39:42.344Z,100252.34
2023-03-20T01:42:12.668Z,100260.03
2023-03-20T01:44:44.046Z,100260.19
2023-03-20T01:47:18.213Z,100267.78
2023-03-20T01:50:22.207Z,100274.53
2023-03-20T01:52:56.469Z,100276.38
2023-03-20T01:55:24.240Z,100266.19
2023-03-20T01:58:03.009Z,100271.34
2023-03-20T02:00:32.160Z,100262.16
2023-03-20T02:03:01.498Z,100273.47
2023-03-20T02:05:51.922Z,100270.91
2023-03-20T02:08:26.786Z,100270.81
2023-03-20T02:10:55.716Z,100277.78
2023-03-20T02:13:29.810Z,100274.53
2023-03-20T02:16:01.156Z,100280.44
2023-03-20T02:18:49.771Z,100276.44
2023-03-20T02:21:46.416Z,100274.16
2023-03-20T02:24:44.626Z,100276.81
2023-03-20T02:27:20.774Z,100282.03
2023-03-20T02:30:24.199Z,100278.53
2023-03-20T02:33:26.905Z,100274.09
2023-03-20T02:36:27.447Z,100273.28
2023-03-20T02:39:07.846Z,100269.78
2023-03-20T02:41:40.146Z,100274.78
2023-03-20T02:44:14.654Z,100273.97
2023-03-20T02:46:52.736Z,100281.78
2023-03-20T02:58:01.007Z,100281.94
2023-03-20T03:00:33.484Z,100284.41
2023-03-20T03:03:07.724Z,100283.53
2023-03-20T03:05:39.564Z,100275.28
2023-03-20T03:08:10.728Z,100288.91
2023-03-20T03:10:43.706Z,100288.16
2023-03-20T03:13:16.865Z,100284.16
2023-03-20T03:15:47.717Z,100284.38
2023-03-20T03:18:20.003Z,100289.81
2023-03-20T03:20:51.184Z,100291.78
2023-03-20T03:23:31.683Z,100290.28
2023-03-20T03:26:02.118Z,100287.25
2023-03-20T03:28:38.706Z,100292.78
2023-03-20T03:31:09.363Z,100295.63
2023-03-20T03:33:40.873Z,100303.78
2023-03-20T03:36:20.651Z,100313.72
2023-03-20T03:38:56.569Z,100310.75
2023-03-20T03:41:31.178Z,100317.00
2023-03-20T03:44:08.863Z,100307.91
2023-03-20T03:46:46.299Z,100302.06
2023-03-20T03:49:19.653Z,100302.09
2023-03-20T03:51:51.773Z,100302.16
2023-03-20T03:54:23.534Z,100296.25
2023-03-20T03:57:12.908Z,100288.59
2023-03-20T03:59:45.862Z,100291.16
2023-03-20T04:02:14.020Z,100274.84
2023-03-20T04:04:46.395Z,100270.56
2023-03-20T04:07:15.002Z,100277.28
2023-03-20T04:09:42.636Z,100278.00
2023-03-20T04:12:31.564Z,100290.78
2023-03-20T04:15:03.237Z,100288.19
2023-03-20T04:17:33.389Z,100292.44
2023-03-20T04:20:01.336Z,100295.75
2023-03-20T04:22:29.032Z,100300.91
2023-03-20T04:25:00.585Z,100303.59
2023-03-20T04:27:29.162Z,100311.34
2023-03-20T04:29:57.702Z,100315.69
2023-03-20T04:32:49.865Z,100320.91
2023-03-20T04:35:31.104Z,100324.34
2023-03-20T04:38:03.827Z,100320.97
2023-03-20T04:40:34.026Z,100325.22
2023-03-20T04:43:01.637Z,100329.50
2023-03-20T04:45:29.442Z,100324.44
2023-03-20T04:47:58.512Z,100334.63
2023-03-20T04:50:26.214Z,100336.38
2023-03-20T04:52:54.867Z,100333.09
2023-03-20T04:55:22.760Z,100336.59
2023-03-20T04:57:51.509Z,100324.78
2023-03-20T05:00:19.747Z,100316.03
2023-03-20T05:02:47.490Z,100315.31
2023-03-20T05:05:17.884Z,100312.63
2023-03-20T05:07:45.933Z,100310.63
2023-03-20T05:10:20.520Z,100312.53
2023-03-20T05:12:56.941Z,100315.81
2023-03-20T05:15:31.992Z,100311.38
2023-03-20T05:18:31.856Z,100333.63
2023-03-20T05:21:30.142Z,100325.97
2023-03-20T05:24:18.184Z,100341.50
2023-03-20T05:27:04.063Z,100342.13
2023-03-20T05:29:48.303Z,100331.78
2023-03-20T05:32:27.975Z,100332.56
2023-03-20T05:35:09.348Z,100334.41
2023-03-20T05:37:55.047Z,100331.69
2023-03-20T05:40:42.348Z,100345.34
2023-03-20T05:43:16.077Z,100350.69
2023-03-20T05:45:56.789Z,100346.78
2023-03-20T05:48:30.547Z,100352.69
2023-03-20T05:51:13.949Z,100352.88
2023-03-20T05:53:56.995Z,100348.59
2023-03-20T05:56:44.995Z,100353.88
2023-03-20T05:59:23.681Z,100360.88
2023-03-20T06:02:05.370Z,100361.81
2023-03-20T06:04:37.270Z,100350.81
2023-03-20T06:07:40.106Z,100347.53
2023-03-20T06:10:13.957Z,100338.16
2023-03-20T06:12:42.734Z,100338.31
2023-03-20T06:15:11.149Z,100340.19
2023-03-20T06:17:43.604Z,100339.66
2023-03-20T06:20:14.368Z,100344.91
2023-03-20T06:22:41.959Z,100351.06
2023-03-20T06:25:10.488Z,100347.03
2023-03-20T06:27:44.166Z,100347.13
2023-03-20T06:30:12.814Z,100354.19
2023-03-20T06:32:41.483Z,100362.47
2023-03-20T06:35:12.282Z,100363.25
2023-03-20T06:37:44.670Z,100376.34
2023-03-20T06:40:17.572Z,100371.97
2023-03-20T06:42:46.552Z,100379.72
2023-03-20T06:45:15.718Z,100386.41
2023-03-20T06:48:01.420Z,100385.22
2023-03-20T06:50:29.217Z,100397.06
2023-03-20T06:52:59.533Z,100390.81
2023-03-20T06:55:41.541Z,100389.94
2023-03-20T06:58:10.613Z,100390.81
2023-03-20T07:00:39.145Z,100389.50
2023-03-20T07:03:08.674Z,100392.97
2023-03-20T07:05:36.780Z,100395.63
2023-03-20T07:08:08.505Z,100393.16
2023-03-20T07:10:36.484Z,100391.63
2023-03-20T07:13:04.779Z,100397.28
2023-03-20T07:15:34.558Z,100397.00
2023-03-20T07:18:02.586Z,100407.41
2023-03-20T07:20:30.313Z,100398.81
2023-03-20T07:22:58.086Z,100397.28
2023-03-20T07:25:39.675Z,100412.13
2023-03-20T07:28:11.086Z,100406.41
2023-03-20T07:30:43.542Z,100408.00
2023-03-20T07:33:12.010Z,100401.28
2023-03-20T07:35:40.622Z,100407.19
2023-03-20T07:38:09.108Z,100399.81
2023-03-20T07:40:45.914Z,100396.63
2023-03-20T07:43:16.749Z,100388.44
2023-03-20T07:46:11.615Z,100388.31
2023-03-20T07:48:39.669Z,100387.72
2023-03-20T07:51:07.998Z,100392.19
2023-03-20T07:53:35.651Z,100394.91
2023-03-20T07:56:05.361Z,100391.06
2023-03-20T07:58:32.950Z,100390.28
2023-03-20T08:01:03.550Z,100386.78
2023-03-20T08:03:32.811Z,100385.75
2023-03-20T08:06:01.637Z,100392.09
2023-03-20T08:08:29.465Z,100395.53
2023-03-20T08:10:57.208Z,100397.50
2023-03-20T08:13:24.747Z,100393.53
2023-03-20T08:15:52.638Z,100388.06
2023-03-20T08:18:22.360Z,100395.06
2023-03-20T08:20:51.491Z,100399.97
2023-03-20T08:23:20.797Z,100399.63
2023-03-20T08:25:49.251Z,100410.75
2023-03-20T08:28:17.418Z,100404.84
2023-03-20T08:30:45.421Z,100404.19
2023-03-20T08:33:13.952Z,100418.06
2023-03-20T08:35:41.621Z,100412.69
2023-03-20T08:38:13.194Z,100423.34
2023-03-20T08:40:42.022Z,100418.91
2023-03-20T08:43:09.891Z,100420.91
2023-03-20T08:45:37.974Z,100415.31
2023-03-20T08:48:05.815Z,100417.84
2023-03-20T08:50:33.539Z,100425.78
2023-03-20T08:53:01.205Z,100428.81
2023-03-20T08:55:30.237Z,100427.63
2023-03-20T08:57:58.205Z,100432.94
2023-03-20T09:00:27.501Z,100441.44
2023-03-20T09:02:55.217Z,100439.78
2023-03-20T09:05:22.979Z,100441.53
2023-03-20T09:07:51.291Z,100425.09
2023-03-20T09:10:19.069Z,100431.31
2023-03-20T09:12:47.890Z,100425.34
2023-03-20T09:15:15.484Z,100447.81
2023-03-20T09:17:43.000Z,100429.81
2023-03-20T09:20:11.781Z,100434.69
2023-03-20T09:22:41.062Z,100444.19
2023-03-20T09:25:09.654Z,100455.84
2023-03-20T09:27:37.325Z,100444.72
2023-03-20T09:30:08.230Z,100463.28
2023-03-20T09:32:36.244Z,100458.13
2023-03-20T09:35:04.543Z,100462.50
2023-03-20T09:37:32.037Z,100470.44
2023-03-20T09:39:59.703Z,100466.63
2023-03-20T09:42:39.409Z,100478.72
2023-03-20T09:45:15.539Z,100472.31
2023-03-20T09:47:50.815Z,100473.19
2023-03-20T09:50:27.134Z,100478.34
2023-03-20T09:52:59.146Z,100467.09
2023-03-20T09:55:34.805Z,100490.22
2023-03-20T09:58:10.967Z,100481.53
2023-03-20T10:00:43.718Z,100474.75
2023-03-20T10:03:19.816Z,100473.56
2023-03-20T10:05:50.965Z,100476.78
2023-03-20T10:08:22.165Z,100472.47
2023-03-20T10:10:53.593Z,100469.03
2023-03-20T10:13:40.176Z,100468.69
2023-03-20T10:16:18.351Z,100487.41
2023-03-20T10:18:52.529Z,100477.66
2023-03-20T10:21:26.234Z,100476.78
2023-03-20T10:24:01.358Z,100462.50
2023-03-20T10:26:30.994Z,100466.63
2023-03-20T10:29:00.001Z,100454.47
2023-03-20T10:31:38.458Z,100465.28
2023-03-20T10:34:24.863Z,100454.44
2023-03-20T10:37:05.346Z,100446.56
2023-03-20T10:39:50.206Z,100452.03
2023-03-20T10:42:22.726Z,100446.03
2023-03-20T10:44:57.366Z,100455.19
2023-03-20T10:47:32.132Z,100450.41
2023-03-20T10:50:03.940Z,100452.25
2023-03-20T10:52:34.894Z,100447.16
2023-03-20T10:55:07.862Z,100453.09
2023-03-20T10:57:41.909Z,100444.41
2023-03-20T11:00:15.381Z,100447.00
2023-03-20T11:02:44.410Z,100450.41
2023-03-20T11:05:23.076Z,100443.91
2023-03-20T11:07:54.190Z,100434.28
2023-03-20T11:10:22.055Z,100439.94
2023-03-20T11:12:52.248Z,100437.13
2023-03-20T11:15:23.807Z,100442.44
2023-03-20T11:17:57.508Z,100419.41
2023-03-20T11:20:27.924Z,100431.84
2023-03-20T11:23:00.641Z,100428.84
2023-03-20T11:25:33.381Z,100433.31
2023-03-20T11:28:32.866Z,100428.56
2023-03-20T11:31:05.257Z,100431.88
2023-03-20T11:33:38.425Z,100430.91
2023-03-20T11:36:12.998Z,100426.84
2023-03-20T11:38:46.004Z,100413.56
2023-03-20T11:41:19.627Z,100413.13
2023-03-20T11:43:47.240Z,100416.56
2023-03-20T11:46:15.446Z,100415.09
2023-03-20T11:48:46.515Z,100405.09
2023-03-20T11:51:17.873Z,100413.50
2023-03-20T11:54:01.180Z,100413.44
2023-03-20T11:56:30.545Z,100418.56
2023-03-20T11:59:00.910Z,100424.44
2023-03-20T12:01:30.903Z,100413.28
2023-03-20T12:04:05.105Z,100411.50
2023-03-20T12:06:43.824Z,100406.84
2023-03-20T12:09:18.927Z,100403.06
2023-03-20T12:11:55.446Z,100420.47
2023-03-20T12:14:33.846Z,100398.25
2023-03-20T12:17:30.830Z,100400.91
2023-03-20T12:20:04.798Z,100386.66
2023-03-20T12:22:37.849Z,100396.19
2023-03-20T12:25:16.568Z,100394.09
2023-03-20T12:27:49.051Z,100396.41
2023-03-20T12:30:21.608Z,100385.03
2023-03-20T12:32:57.236Z,100369.72
2023-03-20T12:35:29.052Z,100369.03
2023-03-20T12:37:56.791Z,100372.34
2023-03-20T12:40:34.350Z,100380.19
2023-03-20T12:43:06.701Z,100379.84
2023-03-20T12:45:44.216Z,100372.13
2023-03-20T12:48:37.609Z,100374.91
2023-03-20T12:51:13.691Z,100365.25
2023-03-20T12:53:53.423Z,100372.81
2023-03-20T12:56:32.209Z,100360.88
2023-03-20T12:59:07.995Z,100364.50
2023-03-20T13:01:41.983Z,100358.31
2023-03-20T13:04:44.601Z,100362.31
2023-03-20T13:07:20.322Z,100352.75
2023-03-20T13:09:58.076Z,100360.34
2023-03-20T13:12:34.335Z,100346.47
2023-03-20T13:15:14.981Z,100344.94
2023-03-20T13:17:50.964Z,100335.25
2023-03-20T13:20:27.949Z,100340.28
2023-03-20T13:23:06.082Z,100328.97
2023-03-20T13:25:57.469Z,100334.34
2023-03-20T13:28:31.766Z,100336.31
2023-03-20T13:31:07.318Z,100336.06
2023-03-20T13:33:46.288Z,100326.28
2023-03-20T13:36:24.256Z,100323.81
2023-03-20T13:39:01.174Z,100337.69
2023-03-20T13:41:29.448Z,100316.84
2023-03-20T13:44:01.106Z,100325.47
2023-03-20T13:46:34.986Z,100324.66
2023-03-20T13:49:09.641Z,100312.53
2023-03-20T13:51:43.215Z,100316.00
2023-03-20T13:54:33.060Z,100313.38
2023-03-20T13:57:08.090Z,100324.44
2023-03-20T13:59:44.501Z,100322.97
2023-03-20T14:02:27.500Z,100302.69
2023-03-20T14:05:02.214Z,100297.19
2023-03-20T14:07:32.216Z,100307.13
2023-03-20T14:10:39.766Z,100314.44
2023-03-20T14:13:14.368Z,100286.72
2023-03-20T14:15:56.159Z,100289.69
2023-03-20T14:18:26.279Z,100294.75
2023-03-20T14:20:56.977Z,100276.50
2023-03-20T14:23:34.877Z,100286.22
2023-03-20T14:26:22.813Z,100289.63
2023-03-20T14:28:56.622Z,100286.81
2023-03-20T14:31:27.728Z,100277.31
2023-03-20T14:34:01.317Z,100284.28
2023-03-20T14:36:45.810Z,100291.84
2023-03-20T14:39:23.468Z,100298.75
2023-03-20T14:42:06.519Z,100281.50
2023-03-20T14:44:52.448Z,100288.47
2023-03-20T14:47:31.112Z,100277.00
2023-03-20T14:50:07.021Z,100275.13
2023-03-20T14:52:46.782Z,100278.75
2023-03-20T14:55:47.388Z,100278.56
2023-03-20T14:58:54.393Z,100278.09
2023-03-20T15:01:44.044Z,100279.69
2023-03-20T15:04:23.963Z,100270.66
2023-03-20T15:06:57.439Z,100268.53
2023-03-20T15:09:27.632Z,100274.28
2023-03-20T15:11:59.531Z,100288.22
2023-03-20T15:14:30.225Z,100287.50
2023-03-20T15:16:59.143Z,100277.50
2023-03-20T15:19:27.042Z,100278.41
2023-03-20T15:21:55.778Z,100275.25
2023-03-20T15:24:24.418Z,100278.63
2023-03-20T15:26:54.452Z,100269.31
2023-03-20T15:29:22.881Z,100277.81
2023-03-20T15:32:12.426Z,100286.09
2023-03-20T15:34:42.439Z,100287.09
2023-03-20T15:37:15.305Z,100281.69
2023-03-20T15:39:45.661Z,100283.47
2023-03-20T15:42:15.818Z,100279.88
2023-03-20T15:44:47.929Z,100276.44
2023-03-20T15:47:21.131Z,100278.47
2023-03-20T15:49:54.015Z,100277.13
2023-03-20T15:52:28.672Z,100266.88
2023-03-20T15:54:58.017Z,100274.69
2023-03-20T15:57:30.764Z,100270.25
2023-03-20T15:59:59.253Z,100265.13
2023-03-20T16:02:30.675Z,100270.38
2023-03-20T16:04:58.369Z,100267.72
2023-03-20T16:07:30.917Z,100268.59
2023-03-20T16:09:59.576Z,100266.19
2023-03-20T16:12:27.866Z,100266.06
2023-03-20T16:14:56.748Z,100266.00
2023-03-20T16:17:26.038Z,100247.94
2023-03-20T16:19:55.256Z,100246.06
2023-03-20T16:22:26.050Z,100246.84
2023-03-20T16:24:58.182Z,100242.38
2023-03-20T16:27:29.156Z,100236.25
2023-03-20T16:29:57.647Z,100243.72
2023-03-20T16:32:36.654Z,100235.31
2023-03-20T16:35:09.863Z,100237.38
2023-03-20T16:37:44.889Z,100239.09
2023-03-20T16:40:19.316Z,100245.03
2023-03-20T16:42:47.443Z,100244.94
2023-03-20T16:45:22.560Z,100243.00
2023-03-20T16:47:50.438Z,100240.97
2023-03-20T16:50:21.986Z,100248.84
2023-03-20T16:52:52.379Z,100250.72
2023-03-20T16:55:27.389Z,100245.44
2023-03-20T16:57:58.702Z,100250.53
2023-03-20T17:00:30.108Z,100257.75
2023-03-20T17:03:16.730Z,100258.81
2023-03-20T17:05:58.153Z,100263.56
2023-03-20T17:08:32.411Z,100255.41
2023-03-20T17:11:09.693Z,100250.22
2023-03-20T17:13:37.198Z,100253.25
2023-03-20T17:16:05.454Z,100256.44
2023-03-20T17:18:38.987Z,100251.44
2023-03-20T17:21:08.272Z,100258.44
2023-03-20T17:23:35.985Z,100262.66
2023-03-20T17:26:03.557Z,100260.16
2023-03-20T17:28:37.030Z,100264.28
2023-03-20T17:31:05.350Z,100264.63
2023-03-20T17:33:33.782Z,100267.06
2023-03-20T17:36:01.829Z,100271.13
2023-03-20T17:38:31.436Z,100266.84
2023-03-20T17:40:59.087Z,100265.34
2023-03-20T17:43:26.652Z,100269.91
2023-03-20T17:45:54.348Z,100274.03
2023-03-20T17:48:22.414Z,100269.09
2023-03-20T17:50:51.301Z,100277.50
2023-03-20T17:53:21.155Z,100279.00
2023-03-20T17:55:50.200Z,100278.41
2023-03-20T17:58:20.904Z,100283.66
2023-03-20T18:00:48.828Z,100287.44
2023-03-20T18:03:18.003Z,100285.53
2023-03-20T18:05:46.624Z,100293.78
2023-03-20T18:08:16.419Z,100290.91
2023-03-20T18:10:44.813Z,100294.16
2023-03-20T18:13:13.832Z,100290.63
2023-03-20T18:15:41.865Z,100296.53
2023-03-20T18:18:09.660Z,100289.53
2023-03-20T18:20:39.667Z,100292.09
2023-03-20T18:23:07.527Z,100290.28
2023-03-20T18:25:36.014Z,100285.09
2023-03-20T18:28:06.696Z,100292.78
2023-03-20T18:30:37.950Z,100287.34
2023-03-20T18:33:06.233Z,100289.84
2023-03-20T18:35:34.232Z,100287.13
2023-03-20T18:38:03.817Z,100286.16
2023-03-20T18:40:33.318Z,100283.38
2023-03-20T18:43:01.299Z,100278.91
2023-03-20T18:45:30.665Z,100277.94
2023-03-20T18:47:59.899Z,100285.66
2023-03-20T18:50:29.801Z,100282.22
2023-03-20T18:52:59.234Z,100287.41
2023-03-20T18:55:28.613Z,100277.81
2023-03-20T18:57:57.120Z,100279.50
2023-03-20T19:00:27.137Z,100281.97
2023-03-20T19:02:56.452Z,100279.31
2023-03-20T19:05:27.640Z,100286.16
2023-03-20T19:07:56.228Z,100284.34
2023-03-20T19:10:30.260Z,100286.81
2023-03-20T19:12:58.409Z,100288.47
2023-03-20T19:15:28.193Z,100287.53
2023-03-20T19:17:56.812Z,100289.13
2023-03-20T19:20:36.049Z,100284.69
2023-03-20T19:23:05.425Z,100277.75
2023-03-20T19:25:33.497Z,100278.47
2023-03-20T19:28:02.189Z,100275.81
2023-03-20T19:30:32.531Z,100276.69
2023-03-20T19:33:00.542Z,100273.19
2023-03-20T19:38:20.654Z,100277.22
2023-03-20T19:40:49.293Z,100278.06
2023-03-20T19:43:17.197Z,100273.78
2023-03-20T19:45:45.874Z,100280.75
2023-03-20T19:48:16.580Z,100276.41
2023-03-20T19:50:46.698Z,100270.31
2023-03-20T19:53:16.607Z,100278.78
2023-03-20T19:55:46.342Z,100280.38
2023-03-20T19:58:14.663Z,100284.44
2023-03-20T20:01:00.806Z,100278.50
2023-03-20T20:03:29.029Z,100286.16
2023-03-20T20:05:56.893Z,100278.44
2023-03-20T20:08:41.018Z,100287.91
2023-03-20T20:11:14.971Z,100278.38
2023-03-20T20:14:04.183Z,100280.78
2023-03-20T20:16:31.606Z,100280.69
2023-03-20T20:18:59.215Z,100288.31
2023-03-20T20:24:15.920Z,100280.47
2023-03-20T20:26:54.487Z,100280.38
2023-03-20T20:29:25.451Z,100280.44
2023-03-20T20:31:53.174Z,100277.13
2023-03-20T20:39:56.346Z,100283.38
2023-03-20T20:42:25.363Z,100280.69
2023-03-20T20:44:52.868Z,100278.84
2023-03-20T20:47:21.198Z,100271.97
2023-03-20T20:49:49.021Z,100267.59
2023-03-20T20:52:17.437Z,100265.81
2023-03-20T20:54:45.041Z,100270.88
2023-03-20T20:57:12.891Z,100269.97
2023-03-20T20:59:42.088Z,100261.50
2023-03-20T21:02:11.868Z,100264.91
2023-03-20T21:04:40.489Z,100269.25
2023-03-20T21:07:11.556Z,100261.50
2023-03-20T21:09:39.893Z,100264.00
2023-03-20T21:12:08.588Z,100264.81
2023-03-20T21:14:39.562Z,100271.72
2023-03-20T21:17:09.972Z,100269.09
2023-03-20T21:19:39.794Z,100269.00
2023-03-20T21:22:09.024Z,100268.13
2023-03-20T21:24:41.199Z,100269.81
2023-03-20T21:27:13.712Z,100273.38
2023-03-20T21:29:43.015Z,100268.28
2023-03-20T21:32:13.581Z,100276.78
2023-03-20T21:34:41.557Z,100273.28
2023-03-20T21:38:13.105Z,100278.41
2023-03-20T21:39:59.102Z,100275.69
2023-03-20T21:42:26.970Z,100270.44
2023-03-20T21:45:46.283Z,100264.38
2023-03-20T21:48:33.339Z,100269.44
2023-03-20T21:50:52.911Z,100273.72
2023-03-20T21:54:11.038Z,100273.63
2023-03-20T21:56:50.467Z,100264.94
2023-03-20T21:59:38.127Z,100266.56
2023-03-20T22:02:07.733Z,100269.22
2023-03-20T22:05:21.872Z,100270.78
2023-03-20T22:07:52.104Z,100262.91
2023-03-20T22:11:09.463Z,100261.88
2023-03-20T22:19:38.505Z,100266.63
2023-03-20T22:22:00.039Z,100274.47
2023-03-20T22:30:22.906Z,100269.19
2023-03-20T22:46:47.450Z,100261.28
2023-03-20T22:49:15.945Z,100263.91
2023-03-20T22:51:57.492Z,100262.16
2023-03-20T22:54:32.100Z,100258.72
2023-03-20T22:56:59.693Z,100268.22
2023-03-20T22:59:27.257Z,100264.72
2023-03-20T23:01:54.859Z,100262.13
2023-03-20T23:04:22.447Z,100262.00
2023-03-20T23:06:50.007Z,100259.47
2023-03-20T23:09:17.823Z,100259.56
2023-03-20T23:11:47.289Z,100255.31
2023-03-20T23:14:21.351Z,100248.44
2023-03-20T23:16:49.815Z,100252.75
2023-03-20T23:19:17.452Z,100246.75
2023-03-20T23:21:45.077Z,100250.16
2023-03-20T23:24:12.622Z,100248.28
2023-03-20T23:26:40.336Z,100245.59
2023-03-20T23:29:09.434Z,100248.25
2023-03-20T23:31:37.049Z,100242.97
2023-03-20T23:34:04.716Z,100247.22
2023-03-20T23:36:37.024Z,100243.78
2023-03-20T23:39:05.977Z,100241.94
2023-03-20T23:44:22.625Z,100236.69
2023-03-20T23:46:50.491Z,100235.63
2023-03-20T23:49:18.342Z,100239.94
2023-03-20T23:51:46.305Z,100233.06
2023-03-20T23:54:14.263Z,100228.78
2023-03-20T23:56:41.943Z,100233.22
2023-03-20T23:59:20.705Z,100224.44
